createdAt,value
2023-04-18T00:01:00.005Z,0
2023-04-18T00:06:19.445Z,0
2023-04-18T00:11:39.180Z,0
2023-04-18T00:16:58.021Z,0
2023-04-18T00:22:16.849Z,0
2023-04-18T00:27:35.748Z,0
2023-04-18T00:32:54.947Z,0
2023-04-18T00:38:14.743Z,0
2023-04-18T00:43:34.212Z,0
2023-04-18T00:48:53.418Z,0
2023-04-18T00:54:13.121Z,0
2023-04-18T00:59:32.083Z,0
2023-04-18T01:10:10.748Z,0
2023-04-18T01:20:48.774Z,0
2023-04-18T01:26:08.446Z,0
2023-04-18T01:31:27.867Z,0
2023-04-18T01:36:46.694Z,0
2023-04-18T01:42:05.708Z,0
2023-04-18T01:47:24.839Z,0
2023-04-18T01:52:43.770Z,0
2023-04-18T01:58:02.688Z,0
2023-04-18T02:03:22.542Z,0
2023-04-18T02:08:41.760Z,0
2023-04-18T02:14:01.427Z,0
2023-04-18T02:19:20.148Z,0
2023-04-18T02:24:49.662Z,0
2023-04-18T02:29:58.875Z,0
2023-04-18T02:35:18.361Z,0
2023-04-18T02:40:38.111Z,0
2023-04-18T02:51:17.026Z,0
2023-04-18T02:56:35.871Z,0
2023-04-18T03:01:55.624Z,0
2023-04-18T03:07:15.614Z,0
2023-04-18T03:12:34.854Z,0
2023-04-18T03:17:54.297Z,0
2023-04-18T03:23:13.235Z,0
2023-04-18T03:28:32.246Z,0
2023-04-18T03:33:51.471Z,0
2023-04-18T03:39:10.955Z,0
2023-04-18T03:44:29.849Z,0
2023-04-18T03:49:48.619Z,0
2023-04-18T03:55:07.947Z,0
2023-04-18T04:00:26.827Z,2
2023-04-18T04:05:45.693Z,7
2023-04-18T04:16:24.033Z,40
2023-04-18T04:21:42.817Z,65
2023-04-18T04:27:02.222Z,107
2023-04-18T04:32:21.510Z,154
2023-04-18T04:37:40.388Z,210
2023-04-18T04:42:59.734Z,260
2023-04-18T04:48:18.931Z,322
2023-04-18T04:58:57.688Z,515
2023-04-18T05:09:36.467Z,633
2023-04-18T05:14:55.306Z,677
2023-04-18T05:20:14.198Z,682
2023-04-18T05:25:33.584Z,840
2023-04-18T05:30:52.731Z,1450
2023-04-18T05:41:30.601Z,2609
2023-04-18T05:46:50.668Z,3677
2023-04-18T05:52:10.157Z,3142
2023-04-18T05:57:29.836Z,3215
2023-04-18T06:02:48.059Z,3303
2023-04-18T06:08:07.100Z,3175
2023-04-18T06:13:26.471Z,4029
2023-04-18T06:18:45.726Z,4515
2023-04-18T06:24:04.797Z,5242
2023-04-18T06:29:24.321Z,4813
2023-04-18T06:34:43.913Z,5250
2023-04-18T06:40:02.957Z,6569
2023-04-18T06:45:22.638Z,7999
2023-04-18T06:50:41.843Z,7693
2023-04-18T06:56:01.569Z,8498
2023-04-18T07:01:21.032Z,10958
2023-04-18T07:06:40.633Z,11530
2023-04-18T07:17:18.718Z,8015
2023-04-18T07:27:57.212Z,9270
2023-04-18T07:33:26.838Z,14919
2023-04-18T07:38:35.944Z,11022
2023-04-18T07:43:55.258Z,11174
2023-04-18T07:49:14.358Z,12704
2023-04-18T07:59:52.350Z,11901
2023-04-18T08:05:11.253Z,16583
2023-04-18T08:10:30.124Z,16316
2023-04-18T08:15:49.537Z,11435
2023-04-18T08:21:09.224Z,10254
2023-04-18T08:26:28.439Z,11065
2023-04-18T08:31:47.588Z,10726
2023-04-18T08:37:07.161Z,12703
2023-04-18T08:42:26.399Z,16620
2023-04-18T08:47:45.277Z,13734
2023-04-18T08:58:23.999Z,17865
2023-04-18T09:03:43.740Z,13709
2023-04-18T09:09:02.871Z,13226
2023-04-18T09:14:22.503Z,13744
2023-04-18T09:19:41.984Z,23864
2023-04-18T09:25:01.003Z,38127
2023-04-18T09:30:20.180Z,19178
2023-04-18T09:40:58.940Z,25304
2023-04-18T09:46:18.205Z,30420
2023-04-18T09:51:37.191Z,23626
2023-04-18T09:56:56.640Z,22081
2023-04-18T10:02:16.226Z,16807
2023-04-18T10:07:35.515Z,14879
2023-04-18T10:12:54.895Z,18197
2023-04-18T10:18:14.187Z,16278
2023-04-18T10:23:34.270Z,16583
2023-04-18T10:34:12.277Z,7055
2023-04-18T10:39:31.944Z,10058
2023-04-18T10:44:50.247Z,10279
2023-04-18T10:50:08.995Z,10290
2023-04-18T10:55:27.762Z,16360
2023-04-18T11:06:06.370Z,26066
2023-04-18T11:11:25.796Z,16029
2023-04-18T11:22:03.899Z,9216
2023-04-18T11:27:22.949Z,14298
2023-04-18T11:32:42.590Z,17655
2023-04-18T11:38:01.365Z,16978
2023-04-18T11:43:20.882Z,14809
2023-04-18T11:48:40.486Z,13099
2023-04-18T11:53:59.669Z,13174
2023-04-18T11:59:19.059Z,12548
2023-04-18T12:04:38.916Z,10797
2023-04-18T12:09:57.422Z,13949
2023-04-18T12:15:16.322Z,13735
2023-04-18T12:20:36.035Z,15511
2023-04-18T12:25:55.814Z,8242
2023-04-18T12:31:15.383Z,10159
2023-04-18T12:36:34.990Z,12481
2023-04-18T12:41:53.676Z,18620
2023-04-18T12:47:12.755Z,15253
2023-04-18T12:57:51.604Z,8715
2023-04-18T13:03:13.011Z,8845
2023-04-18T13:08:30.905Z,13119
2023-04-18T13:13:48.952Z,13470
2023-04-18T13:20:47.772Z,7955
2023-04-18T13:24:30.007Z,14681
2023-04-18T13:30:16.551Z,29999
2023-04-18T13:35:35.065Z,29578
2023-04-18T13:41:04.635Z,19226
2023-04-18T13:46:14.345Z,12370
2023-04-18T13:51:33.614Z,8979
2023-04-18T13:56:52.388Z,11379
2023-04-18T14:02:12.047Z,11101
2023-04-18T14:12:50.086Z,13378
2023-04-18T14:23:26.828Z,8813
2023-04-18T14:28:45.393Z,13070
2023-04-18T14:34:04.496Z,13499
2023-04-18T14:39:23.396Z,12144
2023-04-18T14:44:42.246Z,11643
2023-04-18T14:55:20.839Z,8714
2023-04-18T15:05:59.423Z,7812
2023-04-18T15:11:18.627Z,7272
2023-04-18T15:16:38.259Z,4464
2023-04-18T15:21:57.829Z,4714
2023-04-18T15:27:17.300Z,3430
2023-04-18T15:37:56.002Z,2269
2023-04-18T15:48:34.487Z,2051
2023-04-18T15:53:53.537Z,2345
2023-04-18T15:59:12.253Z,2707
2023-04-18T16:04:31.637Z,2730
2023-04-18T16:09:51.102Z,1945
2023-04-18T16:15:10.345Z,1812
2023-04-18T16:20:29.572Z,1566
2023-04-18T16:25:49.192Z,1926
2023-04-18T16:36:28.013Z,1962
2023-04-18T16:41:46.844Z,2105
2023-04-18T16:47:05.889Z,1837
2023-04-18T16:52:25.333Z,1430
2023-04-18T17:03:04.323Z,1346
2023-04-18T17:08:31.269Z,1624
2023-04-18T17:13:42.481Z,1576
2023-04-18T17:19:01.818Z,1340
2023-04-18T17:24:21.269Z,1033
2023-04-18T17:29:40.595Z,950
2023-04-18T17:34:59.970Z,858
2023-04-18T17:40:19.672Z,810
2023-04-18T17:45:38.530Z,670
2023-04-18T17:50:57.738Z,497
2023-04-18T18:01:36.985Z,269
2023-04-18T18:06:56.491Z,230
2023-04-18T18:12:15.647Z,207
2023-04-18T18:17:34.550Z,124
2023-04-18T18:22:53.722Z,74
2023-04-18T18:28:12.550Z,42
2023-04-18T18:33:31.705Z,18
2023-04-18T18:38:50.602Z,5
2023-04-18T18:44:10.138Z,1
2023-04-18T18:49:29.845Z,0
2023-04-18T19:00:08.706Z,0
2023-04-18T19:05:27.636Z,0
2023-04-18T19:10:46.554Z,0
2023-04-18T19:16:05.367Z,0
2023-04-18T19:26:43.822Z,0
2023-04-18T19:32:03.601Z,0
2023-04-18T19:37:22.774Z,0
2023-04-18T19:42:41.913Z,0
2023-04-18T19:53:20.647Z,0
2023-04-18T19:58:39.994Z,0
2023-04-18T20:03:59.684Z,0
2023-04-18T20:09:19.319Z,0
2023-04-18T20:19:58.588Z,0
2023-04-18T20:25:18.284Z,0
2023-04-18T20:30:37.663Z,0
2023-04-18T20:35:56.566Z,0
2023-04-18T20:41:15.035Z,0
2023-04-18T20:46:34.633Z,0
2023-04-18T20:51:53.453Z,0
2023-04-18T20:57:13.125Z,0
2023-04-18T21:02:32.592Z,0
2023-04-18T21:07:51.505Z,0
2023-04-18T21:13:10.318Z,0
2023-04-18T21:18:29.289Z,0
2023-04-18T21:23:48.468Z,0
2023-04-18T21:29:07.991Z,0
2023-04-18T21:34:27.473Z,0
2023-04-18T21:39:46.916Z,0
2023-04-18T21:45:06.426Z,0
2023-04-18T21:50:26.224Z,0
2023-04-18T22:01:05.706Z,0
2023-04-18T22:06:24.924Z,0
2023-04-18T22:11:44.286Z,0
2023-04-18T22:17:03.401Z,0
2023-04-18T22:22:22.286Z,0
2023-04-18T22:27:40.424Z,0
2023-04-18T22:32:59.475Z,0
2023-04-18T22:43:38.617Z,0
2023-04-18T22:48:57.499Z,0
2023-04-18T22:54:17.225Z,0
2023-04-18T22:59:36.510Z,0
2023-04-18T23:04:55.344Z,0
2023-04-18T23:10:14.871Z,0
2023-04-18T23:15:34.255Z,0
2023-04-18T23:26:13.420Z,0
2023-04-18T23:31:33.053Z,0
2023-04-18T23:36:52.001Z,0
2023-04-18T23:42:11.404Z,0
2023-04-18T23:52:49.676Z,0
2023-04-18T23:58:08.431Z,0
